Robertsville, Ohio
Current Conditions -  °F | °C
As of 12:51 PM on Tuesday 21 Oct 2014 (Local Time) from KCAK Reporting Station
Light Rain Light Rain  
Wind Chill: 50°   Ceiling: 900
Heat Index: 50°   Visibility: 3mi
Dew Point: 45°   Wind: 14mph
Humidity: 83%   Direction: 350°N
Pressure: 29.93"   Gusts: 21mph
Location:  40.76°N, 81.19°W
Report Text: KCAK 211651Z 35012G18KT 3SM -RA BKN009 OVC021 10/07 A2993 RMK AO2 SLP138 P0006 T01000072 $
Loading
Personal Weather Stations






























Interactive Weather Map
Tropical Storm Tracking
New forecast layout! Learn more

10-Day Weather Forecast

Advertisements
Track Severe Weather on mobile